Map

Track Data

SID SEASON NUMBER BASIN SUBBASIN NAME ISO_TIME NATURE LAT LON WMO_WIND WMO_PRES WMO_AGENCY TRACK_TYPE DIST2LAND LANDFALL IFLAG USA_AGENCY USA_ATCF_ID USA_LAT USA_LON USA_RECORD USA_STATUS USA_WIND USA_PRES USA_SSHS USA_R34_NE USA_R34_SE USA_R34_SW USA_R34_NW USA_R50_NE USA_R50_SE USA_R50_SW USA_R50_NW USA_R64_NE USA_R64_SE USA_R64_SW USA_R64_NW USA_POCI USA_ROCI USA_RMW USA_EYE TOKYO_LAT TOKYO_LON TOKYO_GRADE TOKYO_WIND TOKYO_PRES TOKYO_R50_DIR TOKYO_R50_LONG TOKYO_R50_SHORT TOKYO_R30_DIR TOKYO_R30_LONG TOKYO_R30_SHORT TOKYO_LAND CMA_LAT CMA_LON CMA_CAT CMA_WIND CMA_PRES HKO_LAT HKO_LON HKO_CAT HKO_WIND HKO_PRES NEWDELHI_LAT NEWDELHI_LON NEWDELHI_GRADE NEWDELHI_WIND NEWDELHI_PRES NEWDELHI_CI NEWDELHI_DP NEWDELHI_POCI REUNION_LAT REUNION_LON REUNION_TYPE REUNION_WIND REUNION_PRES REUNION_TNUM REUNION_CI REUNION_RMW REUNION_R34_NE REUNION_R34_SE REUNION_R34_SW REUNION_R34_NW REUNION_R50_NE REUNION_R50_SE REUNION_R50_SW REUNION_R50_NW REUNION_R64_NE REUNION_R64_SE REUNION_R64_SW REUNION_R64_NW BOM_LAT BOM_LON BOM_TYPE BOM_WIND BOM_PRES BOM_TNUM BOM_CI BOM_RMW BOM_R34_NE BOM_R34_SE BOM_R34_SW BOM_R34_NW BOM_R50_NE BOM_R50_SE BOM_R50_SW BOM_R50_NW BOM_R64_NE BOM_R64_SE BOM_R64_SW BOM_R64_NW BOM_ROCI BOM_POCI BOM_EYE BOM_POS_METHOD BOM_PRES_METHOD NADI_LAT NADI_LON NADI_CAT NADI_WIND NADI_PRES WELLINGTON_LAT WELLINGTON_LON WELLINGTON_WIND WELLINGTON_PRES DS824_LAT DS824_LON DS824_STAGE DS824_WIND DS824_PRES TD9636_LAT TD9636_LON TD9636_STAGE TD9636_WIND TD9636_PRES TD9635_LAT TD9635_LON TD9635_WIND TD9635_PRES TD9635_ROCI NEUMANN_LAT NEUMANN_LON NEUMANN_CLASS NEUMANN_WIND NEUMANN_PRES MLC_LAT MLC_LON MLC_CLASS MLC_WIND MLC_PRES USA_GUST BOM_GUST BOM_GUST_PER REUNION_GUST REUNION_GUST_PER USA_SEAHGT USA_SEARAD_NE USA_SEARAD_SE USA_SEARAD_SW USA_SEARAD_NW STORM_SPEED STORM_DIR
1915238N18087 1915 28 NI BB NOT_NAMED 1915-08-26 00:00:00 TS 17.8000 87.0000 main 253 242 _________O____ -1 17.8000 87.0000 TC 30 2 35
1915238N18087 1915 28 NI BB NOT_NAMED 1915-08-26 03:00:00 TS 17.8967 87.0750 main 246 235 _________PO___ -1 17.9450 87.1124 TC 30 17.8000 87.0000 1 3 32
1915238N18087 1915 28 NI BB NOT_NAMED 1915-08-26 06:00:00 TS 18.0331 87.1500 main 239 218 _________OP___ -1 18.1000 87.2000 TC 30 17.9328 87.0750 1 3 22
1915238N18087 1915 28 NI BB NOT_NAMED 1915-08-26 09:00:00 TS 18.1939 87.2072 main 218 202 _________PP___ -1 18.2775 87.2501 TC 30 18.0825 87.1501 1 4 16
1915238N18087 1915 28 NI BB NOT_NAMED 1915-08-26 12:00:00 TS 18.3830 87.2626 main 202 182 _________OP___ -1 18.5000 87.3000 TC 30 18.2660 87.2251 1 5 17
1915238N18087 1915 28 NI BB NOT_NAMED 1915-08-26 15:00:00 TS 18.6425 87.3537 main 188 161 _________PO___ -1 18.7850 87.4074 TC 30 18.5000 87.3000 1 6 16
1915238N18087 1915 28 NI BB NOT_NAMED 1915-08-26 18:00:00 TS 18.9462 87.4366 main 161 139 _________OP___ -1 19.1000 87.5000 TC 30 18.7925 87.3733 1 6 11
1915238N18087 1915 28 NI BB NOT_NAMED 1915-08-26 21:00:00 TS 19.2687 87.4799 main 139 114 _________PP___ -1 19.4225 87.5226 TC 30 19.1150 87.4373 1 6 6
1915238N18087 1915 28 NI BB NOT_NAMED 1915-08-27 00:00:00 TS 19.5650 87.4913 main 114 100 _________OP___ -1 19.7000 87.5000 TC 30 19.4300 87.4827 1 5 357
1915238N18087 1915 28 NI BB NOT_NAMED 1915-08-27 03:00:00 TS 19.7900 87.4788 main 100 85 _________PO___ -1 19.8800 87.4575 TC 30 19.7000 87.5000 1 4 353
1915238N18087 1915 28 NI BB NOT_NAMED 1915-08-27 06:00:00 TS 19.9397 87.4415 main 85 76 _________OP___ -1 20.0000 87.4000 TC 30 19.8794 87.4829 1 3 344
1915238N18087 1915 28 NI BB NOT_NAMED 1915-08-27 09:00:00 TS 20.0587 87.3938 main 76 61 _________PP___ -1 20.1075 87.3500 TC 30 20.0100 87.4376 1 2 335
1915238N18087 1915 28 NI BB NOT_NAMED 1915-08-27 12:00:00 TS 20.1553 87.3368 main 61 61 _________OP___ -1 20.2000 87.3000 TC 30 20.1106 87.3735 1 2 332
1915238N18087 1915 28 NI BB NOT_NAMED 1915-08-27 15:00:00 TS 20.2500 87.2787 main 53 45 _________PO___ -1 20.3000 87.2575 TC 30 20.2000 87.3000 1 2 334
1915238N18087 1915 28 NI BB NOT_NAMED 1915-08-27 18:00:00 TS 20.3371 87.2462 main 45 38 _________OP___ -1 20.4000 87.2000 TC 30 20.2742 87.2924 1 2 341
1915238N18087 1915 28 NI BB NOT_NAMED 1915-08-27 21:00:00 TS 20.4045 87.2141 main 38 23 _________PP___ -1 20.4623 87.1596 TC 30 20.3467 87.2687 1 2 323
1915238N18087 1915 28 NI BB NOT_NAMED 1915-08-28 00:00:00 TS 20.5229 87.0928 main 23 0 _________OP___ -1 20.6000 87.0000 TC 30 20.4458 87.1857 1 5 313
1915238N18087 1915 28 NI BB NOT_NAMED 1915-08-28 03:00:00 TS 20.7638 86.8015 main 0 0 _________PO___ -1 20.9277 86.6029 TC 30 20.6000 87.0000 1 9 310
1915238N18087 1915 28 NI BB NOT_NAMED 1915-08-28 06:00:00 TS 21.0756 86.3814 main 0 0 _________OP___ -1 21.3000 86.1000 TC 30 20.8511 86.6627 1 10 307
1915238N18087 1915 28 NI BB NOT_NAMED 1915-08-28 09:00:00 TS 21.3602 85.9392 main 0 0 _________PP___ -1 21.5648 85.6572 TC 30 21.1557 86.2211 1 10 303
1915238N18087 1915 28 NI BB NOT_NAMED 1915-08-28 12:00:00 TS 21.6412 85.4594 main 0 0 _________OP___ -1 21.8000 85.2000 TC 30 21.4823 85.7188 1 11 302
1915238N18087 1915 28 NI BB NOT_NAMED 1915-08-28 15:00:00 TS 21.9250 84.9500 main 0 0 _________PO___ -1 22.0500 84.6999 TC 30 21.8000 85.2000 1 11 300
1915238N18087 1915 28 NI BB NOT_NAMED 1915-08-28 18:00:00 TS 22.1864 84.4478 main 0 0 _________OP___ -1 22.3000 84.2000 TC 30 22.0728 84.6956 1 11 299
1915238N18087 1915 28 NI BB NOT_NAMED 1915-08-28 21:00:00 TS 22.4440 83.9513 main 0 0 _________PP___ -1 22.5575 83.7125 TC 30 22.3305 84.1901 1 10 300
1915238N18087 1915 28 NI BB NOT_NAMED 1915-08-29 00:00:00 TS 22.6865 83.5073 main 0 0 _________OP___ -1 22.8000 83.3000 TC 30 22.5729 83.7145 1 9 302
1915238N18087 1915 28 NI BB NOT_NAMED 1915-08-29 03:00:00 TS 22.9036 83.1599 main 0 0 _________PO___ -1 23.0073 83.0197 TC 30 22.8000 83.3000 1 7 306
1915238N18087 1915 28 NI BB NOT_NAMED 1915-08-29 06:00:00 TS 23.1068 82.8842 main 0 0 _________OP___ -1 23.2000 82.8000 TC 30 23.0137 82.9684 1 6 309
1915238N18087 1915 28 NI BB NOT_NAMED 1915-08-29 09:00:00 TS 23.3071 82.6183 main 0 0 _________PP___ -1 23.4000 82.5350 TC 30 23.2142 82.7017 1 6 311
1915238N18087 1915 28 NI BB NOT_NAMED 1915-08-29 12:00:00 TS 23.5038 82.3921 main 0 0 _________OP___ -1 23.6000 82.3000 TC 30 23.4077 82.4842 1 5 317
1915238N18087 1915 28 NI BB NOT_NAMED 1915-08-29 15:00:00 TS 23.7000 82.2174 main 0 0 _________PO___ -1 23.7999 82.1349 TC 30 23.6000 82.3000 1 5 322
1915238N18087 1915 28 NI BB NOT_NAMED 1915-08-29 18:00:00 TS 23.9020 82.0524 main 0 0 _________OP___ -1 24.0000 82.0000 TC 30 23.8039 82.1049 1 5 324
1915238N18087 1915 28 NI BB NOT_NAMED 1915-08-29 21:00:00 TS 24.1074 81.8875 main 0 0 _________PP___ -1 24.2075 81.8350 TC 30 24.0073 81.9399 1 5 326
1915238N18087 1915 28 NI BB NOT_NAMED 1915-08-30 00:00:00 TS 24.3036 81.7525 main 0 0 _________OP___ -1 24.4000 81.7000 TC 30 24.2071 81.8049 1 4 331
1915238N18087 1915 28 NI BB NOT_NAMED 1915-08-30 03:00:00 TS 24.4750 81.6674 main 0 0 _________PO___ -1 24.5500 81.6349 TC 30 24.4000 81.7000 1 4 339
1915238N18087 1915 28 NI BB NOT_NAMED 1915-08-30 06:00:00 TS 24.6390 81.6065 main 0 0 _________OP___ -1 24.7000 81.6000 TC 30 24.5780 81.6129 1 4 343
1915238N18087 1915 28 NI BB NOT_NAMED 1915-08-30 09:00:00 TS 24.8212 81.5487 main 0 0 _________PP___ -1 24.8925 81.5425 TC 30 24.7499 81.5548 1 4 347
1915238N18087 1915 28 NI BB NOT_NAMED 1915-08-30 12:00:00 TS 25.0109 81.5096 main 0 0 _________OP___ -1 25.1000 81.5000 TC 30 24.9218 81.5193 1 4 353
1915238N18087 1915 28 NI BB NOT_NAMED 1915-08-30 15:00:00 TS 25.2000 81.4962 main 0 0 _________PO___ -1 25.3000 81.4925 TC 30 25.1000 81.5000 1 4 0
1915238N18087 1915 28 NI BB NOT_NAMED 1915-08-30 18:00:00 TS 25.4086 81.4928 main 0 0 _________OP___ -1 25.5000 81.5000 TC 30 25.3172 81.4855 1 4 0
1915238N18087 1915 28 NI BB NOT_NAMED 1915-08-30 21:00:00 TS 25.6300 81.4924 main 0 0 _________PP___ -1 25.7225 81.5000 TC 30 25.5375 81.4849 1 4 2
1915238N18087 1915 28 NI BB NOT_NAMED 1915-08-31 00:00:00 TS 25.8195 81.4959 main 0 0 _________OP___ -1 25.9000 81.5000 TC 30 25.7391 81.4918 1 3 2
1915238N18087 1915 28 NI BB NOT_NAMED 1915-08-31 03:00:00 TS 25.9362 81.5000 main 0 0 _________PO___ -1 25.9725 81.5000 TC 30 25.9000 81.5000 1 2 0
1915238N18087 1915 28 NI BB NOT_NAMED 1915-08-31 06:00:00 TS 25.9966 81.4980 main 0 0 _________OP___ -1 26.0000 81.5000 TC 30 25.9931 81.4959 1 1 354
1915238N18087 1915 28 NI BB NOT_NAMED 1915-08-31 09:00:00 TS 26.0475 81.4963 main 0 0 _________PP___ -1 26.0500 81.5000 TC 30 26.0450 81.4925 1 1 0
1915238N18087 1915 28 NI BB NOT_NAMED 1915-08-31 12:00:00 TS 26.0872 81.4964 main 0 0 _________OP___ -1 26.1000 81.5000 TC 30 26.0744 81.4928 1 1 12
1915238N18087 1915 28 NI BB NOT_NAMED 1915-08-31 15:00:00 TS 26.1250 81.4963 main 0 0 _________PO___ -1 26.1500 81.4925 TC 30 26.1000 81.5000 1 1 14
1915238N18087 1915 28 NI BB NOT_NAMED 1915-08-31 18:00:00 TS 26.1639 81.5093 main 0 0 _________OP___ -1 26.2000 81.5000 TC 30 26.1369 81.5162 1 1 27
1915238N18087 1915 28 NI BB NOT_NAMED 1915-08-31 21:00:00 TS 26.2110 81.5400 main 0 0 _________PP___ -1 26.2500 81.5400 TC 30 26.1850 81.5400 1 1 36
1915238N18087 1915 28 NI BB NOT_NAMED 1915-09-01 00:00:00 TS 26.2604 81.5791 main 0 0 _________OP___ -1 26.3000 81.6000 TC 30 26.2406 81.5687 1 1 32
1915238N18087 1915 28 NI BB NOT_NAMED 1915-09-01 03:00:00 NR 26.3000 81.6000 main 0 __________O___ -1 TC 26.3000 81.6000 1 1 0

About IBTrACS Database

This database is a web-friendly format of International Best Track Archive for Climate Stewardship (IBTrACS), a global best track data archive curated by NOAA dating back to 1842.

Updated: 2021-10-08